createdAt,value
2022-11-25T00:01:07.082Z,3.81
2022-11-25T00:03:35.155Z,3.85
2022-11-25T00:06:10.478Z,3.86
2022-11-25T00:08:38.817Z,3.87
2022-11-25T00:11:08.429Z,3.93
2022-11-25T00:13:37.129Z,4.00
2022-11-25T00:16:06.223Z,4.05
2022-11-25T00:18:33.933Z,4.08
2022-11-25T00:21:06.976Z,4.17
2022-11-25T00:23:36.344Z,4.23
2022-11-25T00:26:10.865Z,4.31
2022-11-25T00:28:39.562Z,4.37
2022-11-25T00:31:09.111Z,4.45
2022-11-25T00:33:37.890Z,4.50
2022-11-25T00:36:07.415Z,4.57
2022-11-25T00:38:36.646Z,4.65
2022-11-25T00:41:21.990Z,4.76
2022-11-25T00:44:08.684Z,4.81
2022-11-25T00:46:36.343Z,4.88
2022-11-25T00:49:04.181Z,4.91
2022-11-25T00:51:33.691Z,4.97
2022-11-25T00:54:01.257Z,5.02
2022-11-25T00:56:30.291Z,5.08
2022-11-25T00:59:00.212Z,5.16
2022-11-25T01:01:28.541Z,5.21
2022-11-25T01:03:56.152Z,5.28
2022-11-25T01:06:23.857Z,5.35
2022-11-25T01:08:52.212Z,5.39
2022-11-25T01:11:22.909Z,5.42
2022-11-25T01:13:52.804Z,5.46
2022-11-25T01:16:28.213Z,5.49
2022-11-25T01:18:55.832Z,5.50
2022-11-25T01:21:25.180Z,5.55
2022-11-25T01:23:53.465Z,5.56
2022-11-25T01:26:23.000Z,5.58
2022-11-25T01:28:54.801Z,5.58
2022-11-25T01:31:24.385Z,5.59
2022-11-25T01:33:57.151Z,5.64
2022-11-25T01:36:26.238Z,5.63
2022-11-25T01:38:57.261Z,5.65
2022-11-25T01:41:28.525Z,5.66
2022-11-25T01:44:07.737Z,5.71
2022-11-25T01:46:53.956Z,5.71
2022-11-25T01:49:28.123Z,5.75
2022-11-25T01:52:01.607Z,5.79
2022-11-25T01:54:33.864Z,5.83
2022-11-25T01:57:09.225Z,5.84
2022-11-25T01:59:44.438Z,5.87
2022-11-25T02:02:12.948Z,5.95
2022-11-25T02:04:45.594Z,5.99
2022-11-25T02:07:18.975Z,6.03
2022-11-25T02:09:49.486Z,6.07
2022-11-25T02:12:19.475Z,6.11
2022-11-25T02:14:47.962Z,6.13
2022-11-25T02:17:16.226Z,6.14
2022-11-25T02:19:57.383Z,6.19
2022-11-25T02:22:33.188Z,6.22
2022-11-25T02:25:11.075Z,6.27
2022-11-25T02:27:39.059Z,6.30
2022-11-25T02:30:07.984Z,6.35
2022-11-25T02:32:35.636Z,6.40
2022-11-25T02:35:03.198Z,6.40
2022-11-25T02:37:31.153Z,6.43
2022-11-25T02:39:58.923Z,6.48
2022-11-25T02:42:29.463Z,6.53
2022-11-25T02:44:58.691Z,6.57
2022-11-25T02:47:26.691Z,6.61
2022-11-25T02:49:55.656Z,6.67
2022-11-25T02:52:23.335Z,6.69
2022-11-25T02:54:51.157Z,6.75
2022-11-25T02:57:19.803Z,6.77
2022-11-25T02:59:50.170Z,6.80
2022-11-25T03:03:08.179Z,6.84
2022-11-25T03:05:37.689Z,6.88
2022-11-25T03:08:07.849Z,6.90
2022-11-25T03:10:38.145Z,6.93
2022-11-25T03:13:07.014Z,6.95
2022-11-25T03:15:36.769Z,6.99
2022-11-25T03:18:05.200Z,7.01
2022-11-25T03:20:35.123Z,7.03
2022-11-25T03:23:06.197Z,7.07
2022-11-25T03:25:34.248Z,7.11
2022-11-25T03:28:03.984Z,7.12
2022-11-25T03:30:32.177Z,7.15
2022-11-25T03:33:04.217Z,7.16
2022-11-25T03:35:32.197Z,7.17
2022-11-25T03:37:59.753Z,7.18
2022-11-25T03:40:27.582Z,7.20
2022-11-25T03:42:55.213Z,7.23
2022-11-25T03:45:24.244Z,7.26
2022-11-25T03:47:54.178Z,7.27
2022-11-25T03:50:23.097Z,7.28
2022-11-25T03:52:52.370Z,7.29
2022-11-25T03:55:20.812Z,7.29
2022-11-25T03:57:50.031Z,7.30
2022-11-25T04:00:18.549Z,7.31
2022-11-25T04:02:50.763Z,7.33
2022-11-25T04:05:21.163Z,7.35
2022-11-25T04:08:40.040Z,7.36
2022-11-25T04:11:09.053Z,7.38
2022-11-25T04:13:40.604Z,7.41
2022-11-25T04:16:20.573Z,7.45
2022-11-25T04:18:48.444Z,7.41
2022-11-25T04:21:17.196Z,7.43
2022-11-25T04:23:46.211Z,7.42
2022-11-25T04:26:17.177Z,7.43
2022-11-25T04:28:45.903Z,7.45
2022-11-25T04:31:14.339Z,7.45
2022-11-25T04:33:49.665Z,7.44
2022-11-25T04:36:22.234Z,7.45
2022-11-25T04:38:52.092Z,7.46
2022-11-25T04:41:22.616Z,7.47
2022-11-25T04:43:54.584Z,7.46
2022-11-25T04:46:29.323Z,7.46
2022-11-25T04:48:57.655Z,7.45
2022-11-25T04:51:27.281Z,7.45
2022-11-25T04:54:02.074Z,7.45
2022-11-25T04:56:31.239Z,7.46
2022-11-25T04:59:19.017Z,7.46
2022-11-25T05:01:48.398Z,7.45
2022-11-25T05:04:33.126Z,7.46
2022-11-25T05:07:07.203Z,7.47
2022-11-25T05:09:39.023Z,7.46
2022-11-25T05:12:17.206Z,7.46
2022-11-25T05:15:11.431Z,7.46
2022-11-25T05:17:41.180Z,7.45
2022-11-25T05:20:11.332Z,7.44
2022-11-25T05:22:40.226Z,7.44
2022-11-25T05:25:13.171Z,7.43
2022-11-25T05:27:53.234Z,7.42
2022-11-25T05:30:20.924Z,7.41
2022-11-25T05:32:48.665Z,7.39
2022-11-25T05:35:18.831Z,7.38
2022-11-25T05:37:47.182Z,7.37
2022-11-25T05:40:17.242Z,7.37
2022-11-25T05:43:04.184Z,7.37
2022-11-25T05:45:35.123Z,7.37
2022-11-25T05:48:06.176Z,7.39
2022-11-25T05:50:37.150Z,7.41
2022-11-25T05:53:11.413Z,7.42
2022-11-25T05:55:41.175Z,7.45
2022-11-25T05:58:20.200Z,7.46
2022-11-25T06:00:54.775Z,7.48
2022-11-25T06:03:25.053Z,7.52
2022-11-25T06:05:53.235Z,7.53
2022-11-25T06:08:21.014Z,7.54
2022-11-25T06:10:50.061Z,7.54
2022-11-25T06:13:18.277Z,7.58
2022-11-25T06:15:48.326Z,7.59
2022-11-25T06:18:19.208Z,7.64
2022-11-25T06:20:57.782Z,7.63
2022-11-25T06:23:26.163Z,7.65
2022-11-25T06:25:55.249Z,7.64
2022-11-25T06:28:25.003Z,7.65
2022-11-25T06:30:53.281Z,7.65
2022-11-25T06:33:27.940Z,7.68
2022-11-25T06:35:58.194Z,7.70
2022-11-25T06:38:26.581Z,7.73
2022-11-25T06:41:00.422Z,7.76
2022-11-25T06:43:30.027Z,7.78
2022-11-25T06:46:04.283Z,7.81
2022-11-25T06:48:33.497Z,7.84
2022-11-25T06:51:05.253Z,7.86
2022-11-25T06:53:35.221Z,7.90
2022-11-25T06:56:12.187Z,7.99
2022-11-25T06:58:40.819Z,7.99
2022-11-25T07:01:12.653Z,8.03
2022-11-25T07:03:42.000Z,8.08
2022-11-25T07:06:11.211Z,8.08
2022-11-25T07:08:40.123Z,8.10
2022-11-25T07:11:11.804Z,8.12
2022-11-25T07:13:40.253Z,8.17
2022-11-25T07:16:36.184Z,8.21
2022-11-25T07:19:05.252Z,8.21
2022-11-25T07:21:34.009Z,8.23
2022-11-25T07:24:04.011Z,8.25
2022-11-25T07:26:36.200Z,8.29
2022-11-25T07:29:06.379Z,8.30
2022-11-25T07:31:41.192Z,8.33
2022-11-25T07:34:13.057Z,8.34
2022-11-25T07:36:42.766Z,8.38
2022-11-25T07:39:14.329Z,8.43
2022-11-25T07:41:43.813Z,8.44
2022-11-25T07:44:15.249Z,8.41
2022-11-25T07:49:46.673Z,8.43
2022-11-25T07:52:14.352Z,8.45
2022-11-25T07:54:41.985Z,8.46
2022-11-25T07:57:12.383Z,8.47
2022-11-25T07:59:41.520Z,8.47
2022-11-25T08:02:10.809Z,8.47
2022-11-25T08:04:41.214Z,8.49
2022-11-25T08:07:08.868Z,8.50
2022-11-25T08:09:36.851Z,8.50
2022-11-25T08:12:06.619Z,8.52
2022-11-25T08:15:00.848Z,8.52
2022-11-25T08:17:28.713Z,8.53
2022-11-25T08:19:56.612Z,8.53
2022-11-25T08:22:24.246Z,8.54
2022-11-25T08:24:51.858Z,8.56
2022-11-25T08:27:21.217Z,8.54
2022-11-25T08:29:50.661Z,8.56
2022-11-25T08:32:20.171Z,8.56
2022-11-25T08:35:14.209Z,8.56
2022-11-25T08:37:42.752Z,8.55
2022-11-25T08:40:11.500Z,8.53
2022-11-25T08:42:39.969Z,8.53
2022-11-25T08:45:09.282Z,8.52
2022-11-25T08:47:42.314Z,8.51
2022-11-25T08:50:15.695Z,8.49
2022-11-25T08:52:43.763Z,8.49
2022-11-25T08:55:11.810Z,8.48
2022-11-25T08:57:39.541Z,8.48
2022-11-25T09:00:08.895Z,8.47
2022-11-25T09:02:39.078Z,8.45
2022-11-25T09:05:06.795Z,8.47
2022-11-25T09:07:35.356Z,8.48
2022-11-25T09:10:03.004Z,8.53
2022-11-25T09:12:30.704Z,8.49
2022-11-25T09:14:58.881Z,8.50
2022-11-25T09:17:27.369Z,8.49
2022-11-25T09:19:57.337Z,8.49
2022-11-25T09:22:26.188Z,8.51
2022-11-25T09:24:54.249Z,8.53
2022-11-25T09:27:21.726Z,8.55
2022-11-25T09:30:14.205Z,8.60
2022-11-25T09:32:42.992Z,8.64
2022-11-25T09:48:31.486Z,9.30
2022-11-25T09:51:10.617Z,9.32
2022-11-25T09:53:45.489Z,9.32
2022-11-25T09:56:25.412Z,9.31
2022-11-25T09:58:57.169Z,9.32
2022-11-25T10:01:27.980Z,9.37
2022-11-25T10:04:02.499Z,9.37
2022-11-25T10:06:37.380Z,9.42
2022-11-25T10:09:12.445Z,9.44
2022-11-25T10:11:50.364Z,9.48
2022-11-25T10:14:28.172Z,9.51
2022-11-25T10:17:03.897Z,9.57
2022-11-25T10:19:43.562Z,9.62
2022-11-25T10:22:22.608Z,9.66
2022-11-25T10:24:52.461Z,9.67
2022-11-25T10:27:28.493Z,9.70
2022-11-25T10:30:14.480Z,9.78
2022-11-25T10:32:47.419Z,9.81
2022-11-25T10:35:25.474Z,9.87
2022-11-25T10:37:56.262Z,9.91
2022-11-25T10:40:24.473Z,9.97
2022-11-25T10:42:55.745Z,10.01
2022-11-25T10:45:31.982Z,10.02
2022-11-25T10:48:14.216Z,10.08
2022-11-25T10:51:01.440Z,10.10
2022-11-25T10:53:30.709Z,10.09
2022-11-25T10:56:02.014Z,10.10
2022-11-25T10:58:35.828Z,10.14
2022-11-25T11:01:18.651Z,10.17
2022-11-25T11:03:51.941Z,10.14
2022-11-25T11:06:47.734Z,10.15
2022-11-25T11:09:36.316Z,10.16
2022-11-25T11:12:22.507Z,10.18
2022-11-25T11:14:50.369Z,10.18
2022-11-25T11:17:36.704Z,10.20
2022-11-25T11:20:20.423Z,10.20
2022-11-25T11:22:55.897Z,10.24
2022-11-25T11:25:30.491Z,10.25
2022-11-25T11:28:23.807Z,10.31
2022-11-25T11:30:58.297Z,10.34
2022-11-25T11:33:31.808Z,10.39
2022-11-25T11:36:08.511Z,10.38
2022-11-25T11:38:47.080Z,10.40
2022-11-25T11:41:21.803Z,10.44
2022-11-25T11:44:04.824Z,10.45
2022-11-25T11:46:41.858Z,10.45
2022-11-25T11:49:44.427Z,10.47
2022-11-25T11:52:19.961Z,10.52
2022-11-25T11:54:57.468Z,10.55
2022-11-25T11:57:36.559Z,10.56
2022-11-25T12:00:07.599Z,10.52
2022-11-25T12:02:55.716Z,10.56
2022-11-25T12:08:29.427Z,10.58
2022-11-25T12:11:04.162Z,10.62
2022-11-25T12:13:41.335Z,10.67
2022-11-25T12:16:17.429Z,10.73
2022-11-25T12:18:51.418Z,10.73
2022-11-25T12:21:36.318Z,10.80
2022-11-25T12:24:16.959Z,10.85
2022-11-25T12:26:52.494Z,10.91
2022-11-25T12:29:32.434Z,10.92
2022-11-25T12:32:13.093Z,10.98
2022-11-25T12:34:46.511Z,10.98
2022-11-25T12:37:22.242Z,10.98
2022-11-25T12:40:02.420Z,11.00
2022-11-25T12:42:33.360Z,11.07
2022-11-25T12:45:06.165Z,11.05
2022-11-25T12:47:34.223Z,11.03
2022-11-25T12:50:36.155Z,11.02
2022-11-25T12:53:11.629Z,11.07
2022-11-25T12:55:41.784Z,11.12
2022-11-25T12:58:25.352Z,11.07
2022-11-25T13:01:47.770Z,11.06
2022-11-25T13:04:44.500Z,11.03
2022-11-25T13:07:26.273Z,11.03
2022-11-25T13:10:32.801Z,11.03
2022-11-25T13:13:28.638Z,11.05
2022-11-25T13:16:00.831Z,11.07
2022-11-25T13:18:33.220Z,11.07
2022-11-25T13:21:06.969Z,11.09
2022-11-25T13:23:49.283Z,11.10
2022-11-25T13:26:54.102Z,11.12
2022-11-25T13:30:01.916Z,11.12
2022-11-25T13:32:37.450Z,11.12
2022-11-25T13:35:34.802Z,11.12
2022-11-25T13:38:04.472Z,11.14
2022-11-25T13:40:37.342Z,11.14
2022-11-25T13:43:21.774Z,11.14
2022-11-25T13:45:50.323Z,11.16
2022-11-25T13:48:22.120Z,11.15
2022-11-25T13:51:10.799Z,11.16
2022-11-25T13:53:40.040Z,11.18
2022-11-25T13:56:16.901Z,11.16
2022-11-25T13:59:18.430Z,11.16
2022-11-25T14:01:54.352Z,11.17
2022-11-25T14:04:42.215Z,11.14
2022-11-25T14:07:27.253Z,11.16
2022-11-25T14:10:11.634Z,11.11
2022-11-25T14:12:55.667Z,11.09
2022-11-25T14:15:38.592Z,11.08
2022-11-25T14:19:16.796Z,11.07
2022-11-25T14:21:49.104Z,11.07
2022-11-25T14:24:28.350Z,11.04
2022-11-25T14:26:58.461Z,11.02
2022-11-25T14:29:35.812Z,11.00
2022-11-25T14:32:09.599Z,11.02
2022-11-25T14:34:41.423Z,10.99
2022-11-25T14:37:17.461Z,10.98
2022-11-25T14:39:55.425Z,10.98
2022-11-25T14:42:26.625Z,10.95
2022-11-25T14:44:58.343Z,10.93
2022-11-25T14:47:29.052Z,10.94
2022-11-25T14:50:33.126Z,10.93
2022-11-25T14:52:53.494Z,10.92
2022-11-25T14:55:31.676Z,10.89
2022-11-25T14:57:59.503Z,10.86
2022-11-25T15:00:27.303Z,10.84
2022-11-25T15:02:56.779Z,10.78
2022-11-25T15:05:27.677Z,10.74
2022-11-25T15:08:03.865Z,10.73
2022-11-25T15:10:40.556Z,10.70
2022-11-25T15:13:25.373Z,10.66
2022-11-25T15:15:55.552Z,10.64
2022-11-25T15:18:27.460Z,10.62
2022-11-25T15:20:59.649Z,10.59
2022-11-25T15:23:55.422Z,10.56
2022-11-25T15:26:28.883Z,10.49
2022-11-25T15:29:22.096Z,10.45
2022-11-25T15:31:53.225Z,10.40
2022-11-25T15:34:25.623Z,10.38
2022-11-25T15:36:54.599Z,10.33
2022-11-25T15:39:29.408Z,10.31
2022-11-25T15:42:03.615Z,10.28
2022-11-25T15:44:34.336Z,10.24
2022-11-25T15:47:05.038Z,10.21
2022-11-25T15:49:36.063Z,10.18
2022-11-25T15:52:08.593Z,10.16
2022-11-25T15:54:43.805Z,10.12
2022-11-25T15:57:19.809Z,10.10
2022-11-25T15:59:51.520Z,10.08
2022-11-25T16:02:33.515Z,10.07
2022-11-25T16:05:33.676Z,10.04
2022-11-25T16:08:33.689Z,10.01
2022-11-25T16:11:12.482Z,9.96
2022-11-25T16:13:42.806Z,9.93
2022-11-25T16:16:17.786Z,9.88
2022-11-25T16:19:05.002Z,9.85
2022-11-25T16:21:43.507Z,9.80
2022-11-25T16:24:24.739Z,9.78
2022-11-25T16:26:57.511Z,9.75
2022-11-25T16:29:31.309Z,9.72
2022-11-25T16:31:59.321Z,9.69
2022-11-25T16:34:28.035Z,9.69
2022-11-25T16:36:55.837Z,9.67
2022-11-25T16:39:25.939Z,9.68
2022-11-25T16:42:02.433Z,9.68
2022-11-25T16:44:31.799Z,9.66
2022-11-25T16:47:00.256Z,9.66
2022-11-25T16:49:30.959Z,9.66
2022-11-25T16:51:59.405Z,9.64
2022-11-25T16:54:27.566Z,9.62
2022-11-25T16:56:56.432Z,9.59
2022-11-25T16:59:30.822Z,9.56
2022-11-25T17:02:00.857Z,9.52
2022-11-25T17:04:29.281Z,9.48
2022-11-25T17:07:31.022Z,9.46
2022-11-25T17:09:45.900Z,9.43
2022-11-25T17:12:17.151Z,9.40
2022-11-25T17:14:48.739Z,9.38
2022-11-25T17:17:24.952Z,9.35
2022-11-25T17:19:55.438Z,9.31
2022-11-25T17:22:26.489Z,9.28
2022-11-25T17:24:55.048Z,9.23
2022-11-25T17:27:25.862Z,9.19
2022-11-25T17:29:56.663Z,9.14
2022-11-25T17:32:25.356Z,9.09
2022-11-25T17:34:53.501Z,9.05
2022-11-25T17:37:23.861Z,9.01
2022-11-25T17:39:53.379Z,8.98
2022-11-25T17:42:27.616Z,8.95
2022-11-25T17:44:57.543Z,8.93
2022-11-25T17:47:25.265Z,8.90
2022-11-25T17:49:53.464Z,8.89
2022-11-25T17:52:21.078Z,8.87
2022-11-25T17:54:48.826Z,8.85
2022-11-25T17:57:20.617Z,8.85
2022-11-25T17:59:50.481Z,8.82
2022-11-25T18:02:23.539Z,8.82
2022-11-25T18:04:51.440Z,8.82
2022-11-25T18:07:19.351Z,8.81
2022-11-25T18:09:47.436Z,8.80
2022-11-25T18:12:19.678Z,8.79
2022-11-25T18:14:47.473Z,8.79
2022-11-25T18:17:18.934Z,8.79
2022-11-25T18:19:54.570Z,8.79
2022-11-25T18:22:24.770Z,8.79
2022-11-25T18:24:53.430Z,8.79
2022-11-25T18:27:24.688Z,8.79
2022-11-25T18:29:53.093Z,8.80
2022-11-25T18:32:20.759Z,8.80
2022-11-25T18:34:50.394Z,8.81
2022-11-25T18:37:18.128Z,8.82
2022-11-25T18:39:46.425Z,8.83
2022-11-25T18:42:24.047Z,8.87
2022-11-25T18:44:51.806Z,8.85
2022-11-25T18:47:19.982Z,8.89
2022-11-25T18:49:52.348Z,8.89
2022-11-25T18:52:24.652Z,8.89
2022-11-25T18:54:52.249Z,8.90
2022-11-25T18:57:20.004Z,8.90
2022-11-25T19:00:00.225Z,8.90
2022-11-25T19:02:36.222Z,8.91
2022-11-25T19:05:15.423Z,8.91
2022-11-25T19:07:46.044Z,8.88
2022-11-25T19:10:15.440Z,8.86
2022-11-25T19:12:45.123Z,8.85
2022-11-25T19:15:16.962Z,8.85
2022-11-25T19:17:46.241Z,8.83
2022-11-25T19:20:16.111Z,8.80
2022-11-25T19:22:45.451Z,8.79
2022-11-25T19:25:13.809Z,8.78
2022-11-25T19:27:45.552Z,8.74
2022-11-25T19:30:17.430Z,8.72
2022-11-25T19:32:47.250Z,8.69
2022-11-25T19:35:17.959Z,8.67
2022-11-25T19:37:47.031Z,8.62
2022-11-25T19:40:16.376Z,8.60
2022-11-25T19:42:45.869Z,8.56
2022-11-25T19:45:15.751Z,8.53
2022-11-25T19:47:51.682Z,8.50
2022-11-25T19:50:23.654Z,8.45
2022-11-25T19:52:53.787Z,8.43
2022-11-25T19:55:24.441Z,8.41
2022-11-25T19:57:53.140Z,8.39
2022-11-25T20:00:23.520Z,8.37
2022-11-25T20:02:54.741Z,8.35
2022-11-25T20:05:26.691Z,8.32
2022-11-25T20:07:55.607Z,8.28
2022-11-25T20:10:49.142Z,8.27
2022-11-25T20:13:17.347Z,8.26
2022-11-25T20:15:45.929Z,8.22
2022-11-25T20:18:18.351Z,8.19
2022-11-25T20:20:48.743Z,8.18
2022-11-25T20:23:25.270Z,8.16
2022-11-25T20:25:53.511Z,8.14
2022-11-25T20:28:23.947Z,8.14
2022-11-25T20:30:52.502Z,8.10
2022-11-25T20:33:24.578Z,8.09
2022-11-25T20:35:56.847Z,8.08
2022-11-25T20:38:32.065Z,8.03
2022-11-25T20:41:01.440Z,8.02
2022-11-25T20:43:31.843Z,7.98
2022-11-25T20:46:02.050Z,7.96
2022-11-25T20:48:30.392Z,7.93
2022-11-25T20:51:01.237Z,7.91
2022-11-25T20:53:32.239Z,7.88
2022-11-25T20:56:01.440Z,7.86
2022-11-25T20:58:32.149Z,7.82
2022-11-25T21:01:00.532Z,7.79
2022-11-25T21:03:28.961Z,7.75
2022-11-25T21:05:57.968Z,7.72
2022-11-25T21:08:29.990Z,7.69
2022-11-25T21:10:59.526Z,7.65
2022-11-25T21:13:29.458Z,7.61
2022-11-25T21:15:57.621Z,7.57
2022-11-25T21:18:26.547Z,7.54
2022-11-25T21:20:58.467Z,7.49
2022-11-25T21:23:29.952Z,7.47
2022-11-25T21:26:05.459Z,7.45
2022-11-25T21:28:36.804Z,7.41
2022-11-25T21:31:09.836Z,7.37
2022-11-25T21:33:39.437Z,7.34
2022-11-25T21:36:11.714Z,7.31
2022-11-25T21:38:39.442Z,7.27
2022-11-25T21:41:08.804Z,7.22
2022-11-25T21:43:41.051Z,7.18
2022-11-25T21:46:13.540Z,7.14
2022-11-25T21:48:42.122Z,7.10
2022-11-25T21:51:12.450Z,7.07
2022-11-25T21:53:42.340Z,7.04
2022-11-25T21:56:19.556Z,6.99
2022-11-25T21:58:51.013Z,6.94
2022-11-25T22:01:19.471Z,6.90
2022-11-25T22:03:47.120Z,6.86
2022-11-25T22:06:20.670Z,6.83
2022-11-25T22:08:48.309Z,6.79
2022-11-25T22:11:20.734Z,6.73
2022-11-25T22:13:50.637Z,6.70
2022-11-25T22:16:25.603Z,6.65
2022-11-25T22:18:54.068Z,6.62
2022-11-25T22:21:22.110Z,6.60
2022-11-25T22:23:50.295Z,6.58
2022-11-25T22:26:24.273Z,6.55
2022-11-25T22:28:53.898Z,6.54
2022-11-25T22:31:22.105Z,6.52
2022-11-25T22:33:51.423Z,6.51
2022-11-25T22:36:34.243Z,6.48
2022-11-25T22:39:12.980Z,6.48
2022-11-25T22:41:42.955Z,6.47
2022-11-25T22:44:18.489Z,6.47
2022-11-25T22:46:46.672Z,6.45
2022-11-25T22:49:28.588Z,6.42
2022-11-25T22:51:57.557Z,6.39
2022-11-25T22:54:25.414Z,6.35
2022-11-25T22:56:54.619Z,6.31
2022-11-25T22:59:22.225Z,6.29
2022-11-25T23:01:50.518Z,6.26
2022-11-25T23:04:19.913Z,6.23
2022-11-25T23:06:50.423Z,6.21
2022-11-25T23:09:19.900Z,6.18
2022-11-25T23:11:49.459Z,6.14
2022-11-25T23:14:19.395Z,6.12
2022-11-25T23:16:47.166Z,6.09
2022-11-25T23:19:16.671Z,6.07
2022-11-25T23:21:45.926Z,6.05
2022-11-25T23:24:16.864Z,6.03
2022-11-25T23:26:45.135Z,6.02
2022-11-25T23:29:12.791Z,6.02
2022-11-25T23:31:41.956Z,6.00
2022-11-25T23:34:13.614Z,5.98
2022-11-25T23:36:45.524Z,5.97
2022-11-25T23:39:19.951Z,5.95
2022-11-25T23:41:48.736Z,5.92
2022-11-25T23:44:23.489Z,5.90
2022-11-25T23:46:53.762Z,5.88
2022-11-25T23:49:31.539Z,5.86
2022-11-25T23:52:07.243Z,5.83
2022-11-25T23:54:40.942Z,5.80
2022-11-25T23:57:14.948Z,5.78
2022-11-25T23:59:43.423Z,5.74
